M I D A S
Marine Information and Data Acquisition System
Tripno 1652 of the Zeeleeuw from 2009-03-03 07:48:57 to 2009-03-03 15:26:41
Back to CruiseResearch ActivitiesStationsMapUnderway DataData graphs

EquipmentUnitsComment
TimeDGPSUTC
LatitudeDGPSDM.mWGS84
LongitudeDGPSDM.mWGS84
HeadingGyrodeg 
SOGDGPSknotsSpeed over ground
COGDGPSdegCourse over ground
DepthEcho soundermeters200 kHz
Missing or incorrect values are displayed as -999
Navigation data collected by the RV Zeeleeuw from 2009-03-03 07:41:01 to 2009-03-03 15:35:30
Time Latitude Longitude Heading SOG COG Depth
2009-03-03 07:42:09 51°13.673 2°55.923 113.3 2.2 297 -999
2009-03-03 07:43:09 51°13.688 2°55.857 102.4 2.8 286 -999
2009-03-03 07:44:09 51°13.697 2°55.783 87.9 2.6 276 -999
2009-03-03 07:45:09 51°13.71 2°55.773 37.1 1 20 -999
2009-03-03 07:46:09 51°13.703 2°55.764 11.1 0.2 265 -999
2009-03-03 07:47:09 51°13.731 2°55.739 323.1 3.9 322 -999
2009-03-03 07:48:07 51°13.826 2°55.639 333.4 8.9 333 10.2
2009-03-03 07:49:06 51°13.969 2°55.531 336.6 10 336 10
2009-03-03 07:50:05 51°14.117 2°55.421 334.8 10 332 10.1
2009-03-03 07:51:06 51°14.258 2°55.263 320.2 10.4 317 10.4
2009-03-03 07:52:06 51°14.381 2°55.058 316.3 10.9 314 10.7
2009-03-03 07:53:06 51°14.518 2°54.862 320.2 11.4 316 10.5
2009-03-03 07:54:05 51°14.649 2°54.631 314.5 12.4 311 9.9
2009-03-03 07:55:06 51°14.775 2°54.363 299.8 12.4 295 10.5
2009-03-03 07:56:06 51°14.828 2°54.044 281.5 12.5 281 9.7
2009-03-03 07:57:06 51°14.872 2°53.719 282.9 12.5 283 10.1
2009-03-03 07:58:05 51°14.939 2°53.412 292.4 12.5 291 10
2009-03-03 07:59:05 51°15.016 2°53.106 292.6 12.4 290 10.1
2009-03-03 08:00:05 51°15.081 2°52.793 290.2 12.5 288 10.7
2009-03-03 08:01:06 51°15.146 2°52.472 291 12.5 289 10.9
2009-03-03 08:02:05 51°15.213 2°52.162 291.1 12.6 290 11.4
2009-03-03 08:03:06 51°15.273 2°51.835 285.6 12.7 284 11.9
2009-03-03 08:04:05 51°15.322 2°51.513 285.2 12.7 284 12.5
2009-03-03 08:05:05 51°15.368 2°51.185 279.3 12.6 275 12.7
2009-03-03 08:06:05 51°15.373 2°50.852 268.8 12.6 269 12.8
2009-03-03 08:07:06 51°15.363 2°50.514 264.7 12.5 265 12.9
2009-03-03 08:08:06 51°15.345 2°50.183 264.6 12.5 265 12.9
2009-03-03 08:09:06 51°15.327 2°49.852 265.1 12.5 265 13
2009-03-03 08:10:05 51°15.302 2°49.529 263.1 12.5 263 12.9
2009-03-03 08:11:05 51°15.282 2°49.198 265 12.5 264 13
2009-03-03 08:12:05 51°15.264 2°48.867 266.3 12.5 267 13
2009-03-03 08:13:05 51°15.25 2°48.534 266.4 12.6 266 12.9
2009-03-03 08:14:05 51°15.234 2°48.201 265.9 12.6 265 11.5
2009-03-03 08:15:05 51°15.212 2°47.871 263.3 12.5 263 10
2009-03-03 08:16:05 51°15.196 2°47.541 270.6 12.5 272 9.4
2009-03-03 08:17:05 51°15.212 2°47.209 275.5 12.6 275 9.9
2009-03-03 08:18:06 51°15.227 2°46.868 274.4 12.7 274 11
2009-03-03 08:19:05 51°15.237 2°46.536 272.4 12.8 271 12.4
2009-03-03 08:20:05 51°15.237 2°46.199 271.3 12.8 270 13.9
2009-03-03 08:21:05 51°15.237 2°45.859 270.7 12.8 269 15
2009-03-03 08:22:05 51°15.235 2°45.522 270.8 12.7 270 15.9
2009-03-03 08:23:06 51°15.233 2°45.18 270.8 12.8 269 17.1
2009-03-03 08:24:06 51°15.233 2°44.841 270.4 12.9 270 18.1
2009-03-03 08:25:06 51°15.229 2°44.499 269.3 12.9 270 18.1
2009-03-03 08:26:06 51°15.231 2°44.155 270.9 12.9 271 16.3
2009-03-03 08:27:05 51°15.228 2°43.822 268 12.7 268 14
2009-03-03 08:28:05 51°15.224 2°43.487 268.8 12.6 269 12.3
2009-03-03 08:29:05 51°15.223 2°43.15 271.5 12.7 272 13.2
2009-03-03 08:30:05 51°15.227 2°42.812 269.4 12.7 269 12.4
2009-03-03 08:31:05 51°15.221 2°42.474 267.9 12.7 268 12
2009-03-03 08:32:05 51°15.212 2°42.138 267.2 12.7 268 11.6
2009-03-03 08:33:05 51°15.205 2°41.802 267.9 12.7 269 11.5
2009-03-03 08:34:06 51°15.199 2°41.46 267.4 12.6 269 11.4
2009-03-03 08:35:05 51°15.193 2°41.13 267.9 12.7 269 10.9
2009-03-03 08:36:05 51°15.187 2°40.793 267.8 12.7 269 11.5
2009-03-03 08:37:06 51°15.183 2°40.452 267.9 12.7 269 11.6
2009-03-03 08:38:06 51°15.174 2°40.118 267.4 12.6 267 13.8
2009-03-03 08:39:06 51°15.164 2°39.783 267.5 12.7 267 15.3
2009-03-03 08:40:06 51°15.154 2°39.446 267.8 12.7 268 17
2009-03-03 08:41:06 51°15.144 2°39.108 267.2 12.8 267 17.7
2009-03-03 08:42:06 51°15.182 2°38.781 293.4 12.8 293 17.4
2009-03-03 08:43:06 51°15.259 2°38.461 290.5 12.9 289 14.6
2009-03-03 08:44:06 51°15.359 2°38.164 304.9 12.9 302 11
2009-03-03 08:45:05 51°15.463 2°37.872 299.7 13 297 10.2
2009-03-03 08:46:05 51°15.562 2°37.566 300.6 13.1 298 10.7
2009-03-03 08:47:05 51°15.664 2°37.259 299.2 13 297 12
2009-03-03 08:48:05 51°15.737 2°36.936 288.7 12.9 287 12.1
2009-03-03 08:49:05 51°15.791 2°36.602 284.4 13 283 19.3
2009-03-03 08:50:06 51°15.851 2°36.271 301.9 12.5 304 25.7
2009-03-03 08:51:05 51°16.008 2°36.062 334.4 12.7 331 26.1
2009-03-03 08:52:05 51°16.2 2°35.924 342 12.6 341 26.2
2009-03-03 08:53:06 51°16.405 2°35.836 350.3 12.3 346 25.9
2009-03-03 08:54:06 51°16.604 2°35.763 350.4 12.3 347 26.1
2009-03-03 08:55:06 51°16.8 2°35.675 345.6 12.3 342 23.5
2009-03-03 08:56:06 51°16.994 2°35.565 343.8 12.3 340 15.7
2009-03-03 08:57:06 51°17.184 2°35.431 340.2 12.6 335 11.7
2009-03-03 08:58:06 51°17.376 2°35.29 340.1 12.8 336 10.7
2009-03-03 08:59:06 51°17.559 2°35.116 328.9 12.8 324 9.2
2009-03-03 09:00:05 51°17.732 2°34.92 327.3 12.8 321 17.9
2009-03-03 09:01:05 51°17.852 2°34.649 290.1 12.7 288 22.9
2009-03-03 09:02:05 51°17.905 2°34.315 288.4 13.1 287 27.9
2009-03-03 09:03:06 51°17.971 2°33.982 289.8 13 287 26.8
2009-03-03 09:04:06 51°18.043 2°33.656 291.4 13 289 24.6
2009-03-03 09:05:06 51°18.112 2°33.329 289.8 13 288 21.7
2009-03-03 09:06:06 51°18.184 2°33 290.4 12.9 290 21
2009-03-03 09:07:05 51°18.255 2°32.686 291.2 12.7 290 24.4
2009-03-03 09:08:06 51°18.327 2°32.363 291.5 12.7 291 26.2
2009-03-03 09:09:06 51°18.397 2°32.047 289.3 12.6 288 28.2
2009-03-03 09:10:06 51°18.466 2°31.727 290.4 12.7 289 29.2
2009-03-03 09:11:06 51°18.536 2°31.407 290.4 12.8 290 29.2
2009-03-03 09:12:06 51°18.606 2°31.084 291.2 12.8 290 29.4
2009-03-03 09:13:06 51°18.676 2°30.763 290.3 12.8 289 29.3
2009-03-03 09:14:06 51°18.743 2°30.442 290.4 12.8 288 28
2009-03-03 09:15:06 51°18.81 2°30.119 290.4 12.9 288 22.2
2009-03-03 09:16:05 51°18.876 2°29.798 290.9 13.1 289 13.4
2009-03-03 09:17:06 51°18.95 2°29.457 290 13.6 289 10.9
2009-03-03 09:18:06 51°19.023 2°29.113 288.8 13.7 289 11.6
2009-03-03 09:19:06 51°19.065 2°28.772 266.4 12.5 261 28.7
2009-03-03 09:20:06 51°18.965 2°28.484 232.3 12.7 234 30.5
2009-03-03 09:21:06 51°18.832 2°28.225 221.4 12.6 224 31.1
2009-03-03 09:22:06 51°18.671 2°28.007 218.3 12.7 221 31.2
2009-03-03 09:23:06 51°18.514 2°27.783 219.8 12.6 221 31
2009-03-03 09:24:06 51°18.357 2°27.557 220.2 12.9 223 31.2
2009-03-03 09:25:06 51°18.199 2°27.326 220.4 12.9 222 31.3
2009-03-03 09:26:06 51°18.039 2°27.096 220.9 12.9 222 31.5
2009-03-03 09:27:06 51°17.879 2°26.87 220.5 12.9 222 31.7
2009-03-03 09:28:06 51°17.719 2°26.642 219.1 12.9 221 31.3
2009-03-03 09:29:06 51°17.555 2°26.422 218.4 12.9 221 31.4
2009-03-03 09:30:06 51°17.395 2°26.193 221.5 13 223 31.5
2009-03-03 09:31:05 51°17.237 2°25.969 220.1 12.9 222 31
2009-03-03 09:32:05 51°17.074 2°25.743 221 13 223 30.7
2009-03-03 09:33:05 51°16.908 2°25.526 212 12.9 213 30.7
2009-03-03 09:34:05 51°16.711 2°25.458 180.8 12.4 184 30.4
2009-03-03 09:35:05 51°16.512 2°25.439 180.2 10.6 183 25.5
2009-03-03 09:36:06 51°16.349 2°25.427 180 9.2 184 20.2
2009-03-03 09:37:05 51°16.253 2°25.347 240.6 5.2 249 19.6
2009-03-03 09:38:06 51°16.252 2°25.259 285 0.9 294 22.1
2009-03-03 09:39:06 51°16.261 2°25.238 310.2 1 311 22.8
2009-03-03 09:40:05 51°16.271 2°25.219 317.9 0.9 308 23.7
2009-03-03 09:41:05 51°16.28 2°25.203 314.7 0.8 308 24.3
2009-03-03 09:42:05 51°16.289 2°25.19 316.3 0.7 311 24.8
2009-03-03 09:43:05 51°16.297 2°25.177 311 0.6 312 25.2
2009-03-03 09:44:05 51°16.305 2°25.16 309.7 1.4 310 26
2009-03-03 09:45:05 51°16.353 2°25.091 337.7 5.9 333 28.2
2009-03-03 09:46:06 51°16.479 2°25.09 10.9 9.2 3 30.6
2009-03-03 09:47:05 51°16.655 2°25.083 2.9 11.7 -999 32.9
2009-03-03 09:48:05 51°16.851 2°25.081 8.3 11.8 359 32.9
2009-03-03 09:49:05 51°17.044 2°25.098 10.3 11.6 5 33.5
2009-03-03 09:50:05 51°17.235 2°25.109 11 11.4 3 33.8
2009-03-03 09:51:06 51°17.402 2°25.219 43.3 10.8 42 33
2009-03-03 09:52:05 51°17.511 2°25.44 58.3 11.1 54 31.4
2009-03-03 09:53:06 51°17.616 2°25.679 55.2 11 51 30.8
2009-03-03 09:54:05 51°17.719 2°25.911 55.5 10.9 55 31.1
2009-03-03 09:55:06 51°17.828 2°26.15 55.5 11 54 31.6
2009-03-03 09:56:05 51°17.937 2°26.379 53.6 10.9 51 31.7
2009-03-03 09:57:06 51°18.046 2°26.619 56.3 10.9 54 31.2
2009-03-03 09:58:05 51°18.154 2°26.852 52.3 11.1 51 30.8
2009-03-03 09:59:06 51°18.278 2°27.081 50.1 11.4 52 31.7
2009-03-03 10:00:05 51°18.404 2°27.298 50.5 11.4 49 31.4
2009-03-03 10:01:06 51°18.523 2°27.535 53.7 11.2 53 31.4
2009-03-03 10:02:05 51°18.633 2°27.774 55.5 11.4 53 31.4
2009-03-03 10:03:06 51°18.751 2°28.016 54.8 11.4 49 31
2009-03-03 10:04:05 51°18.864 2°28.256 56.4 11.6 51 31
2009-03-03 10:05:06 51°18.977 2°28.508 56 11.4 55 30
2009-03-03 10:06:05 51°19.041 2°28.775 86.9 11.2 88 28
2009-03-03 10:07:06 51°19.018 2°29.071 101.4 11 100 13.5
2009-03-03 10:08:06 51°18.98 2°29.338 102.4 10.1 103 11.3
2009-03-03 10:09:06 51°18.933 2°29.606 104 10.5 108 10
2009-03-03 10:10:05 51°18.885 2°29.87 104.6 10.7 105 15.1
2009-03-03 10:11:06 51°18.828 2°30.155 105.2 11.2 107 20.9
2009-03-03 10:12:05 51°18.777 2°30.441 102.6 11.5 104 27.3
2009-03-03 10:13:06 51°18.705 2°30.731 110.4 11.6 115 28.8
2009-03-03 10:14:05 51°18.625 2°31.006 111.4 11.7 116 29
2009-03-03 10:15:06 51°18.543 2°31.291 109.7 11.6 114 28.7
2009-03-03 10:16:05 51°18.468 2°31.562 109 11.3 117 29.1
2009-03-03 10:17:06 51°18.389 2°31.842 111.9 11.5 118 28.6
2009-03-03 10:18:05 51°18.313 2°32.114 109.7 11.3 113 26.9
2009-03-03 10:19:05 51°18.236 2°32.388 110.3 11.3 115 25.8
2009-03-03 10:20:06 51°18.159 2°32.667 110.1 11.3 113 23.4
2009-03-03 10:21:05 51°18.09 2°32.939 106.1 11.2 108 20.6
2009-03-03 10:22:06 51°18.03 2°33.226 103.9 11 107 21
2009-03-03 10:23:06 51°17.974 2°33.507 103.8 11.2 110 25
2009-03-03 10:24:05 51°17.916 2°33.78 105.3 11 107 26.5
2009-03-03 10:25:06 51°17.856 2°34.063 106 11.2 109 27.1
2009-03-03 10:26:05 51°17.795 2°34.341 106.3 11.3 108 25.1
2009-03-03 10:27:06 51°17.753 2°34.638 98.7 11.3 99 21.3
2009-03-03 10:28:05 51°17.72 2°34.925 99 10.8 97 17.3
2009-03-03 10:29:06 51°17.689 2°35.214 99.2 10.4 101 13
2009-03-03 10:30:05 51°17.66 2°35.49 99.5 10.8 100 13.2
2009-03-03 10:31:06 51°17.575 2°35.736 127 11 131 10.8
2009-03-03 10:32:05 51°17.427 2°35.908 145.9 11.7 155 13.5
2009-03-03 10:33:06 51°17.243 2°36.032 154.7 12 162 18.8
2009-03-03 10:34:06 51°17.047 2°36.104 163.5 12.2 168 23.1
2009-03-03 10:35:05 51°16.849 2°36.163 162.7 12.3 169 25.6
2009-03-03 10:36:06 51°16.645 2°36.226 163.7 12.3 170 25
2009-03-03 10:37:05 51°16.445 2°36.285 164.2 12.4 169 26.8
2009-03-03 10:38:06 51°16.24 2°36.351 164.1 12.4 169 26.2
2009-03-03 10:39:05 51°16.041 2°36.414 163.2 12.3 168 25.9
2009-03-03 10:40:06 51°15.838 2°36.483 163.8 12.2 168 22.3
2009-03-03 10:41:05 51°15.643 2°36.545 166.4 12.1 170 15.9
2009-03-03 10:42:06 51°15.442 2°36.611 163.2 12.1 167 13.3
2009-03-03 10:43:05 51°15.249 2°36.676 164.2 12 168 12.1
2009-03-03 10:44:06 51°15.05 2°36.736 164.8 11.9 168 12.6
2009-03-03 10:45:05 51°14.858 2°36.801 162.7 11.9 165 11
2009-03-03 10:46:09 51°14.657 2°36.877 161.6 11.9 168 9.2
2009-03-03 10:47:08 51°14.466 2°36.937 163.5 12 169 9.6
2009-03-03 10:48:06 51°14.274 2°36.994 166.2 12.1 171 10.6
2009-03-03 10:49:06 51°14.072 2°37.026 168.2 12.4 174 15.3
2009-03-03 10:50:06 51°13.869 2°37.055 169 12.1 174 19.8
2009-03-03 10:51:06 51°13.669 2°37.09 166.4 12 172 16.2
2009-03-03 10:52:05 51°13.479 2°37.144 165.5 11.3 170 7.2
2009-03-03 10:53:06 51°13.284 2°37.19 167.2 11.8 172 5.5
2009-03-03 10:54:05 51°13.089 2°37.235 166.5 12.1 171 8.1
2009-03-03 10:55:06 51°12.884 2°37.285 165.4 12.3 173 9.1
2009-03-03 10:56:06 51°12.677 2°37.306 176.8 12.7 184 9.8
2009-03-03 10:57:05 51°12.472 2°37.257 188.2 12.8 194 9.7
2009-03-03 10:58:06 51°12.263 2°37.17 192.1 12.8 196 9.6
2009-03-03 10:59:06 51°12.058 2°37.073 192.3 12.8 196 9.5
2009-03-03 11:00:05 51°11.854 2°36.983 192 13 195 10.2
2009-03-03 11:01:06 51°11.646 2°36.875 198.9 13 202 10.7
2009-03-03 11:02:06 51°11.446 2°36.737 201.9 13.2 205 10.7
2009-03-03 11:03:06 51°11.248 2°36.588 203.5 13.1 206 11
2009-03-03 11:04:06 51°11.053 2°36.43 204.8 13.1 206 10.6
2009-03-03 11:05:05 51°10.861 2°36.278 204.3 13.1 207 10.4
2009-03-03 11:06:06 51°10.661 2°36.122 204.1 13.1 206 9.7
2009-03-03 11:07:06 51°10.465 2°35.97 204 13 206 9.8
2009-03-03 11:08:06 51°10.27 2°35.822 203.2 13 205 9.5
2009-03-03 11:09:06 51°10.068 2°35.751 171.3 12.2 174 13.9
2009-03-03 11:10:06 51°9.921 2°35.917 117.3 10.8 117 17.2
2009-03-03 11:11:06 51°9.932 2°36.19 69.6 10.9 67 16.9
2009-03-03 11:12:05 51°10.005 2°36.452 67 11 64 16.8
2009-03-03 11:13:06 51°10.081 2°36.723 69.4 11.1 67 16.9
2009-03-03 11:14:06 51°10.119 2°37.009 82.2 11.1 83 17.1
2009-03-03 11:15:05 51°10.133 2°37.298 84.1 11.1 85 17
2009-03-03 11:16:06 51°10.146 2°37.597 84.6 11.1 87 16.6
2009-03-03 11:17:06 51°10.154 2°37.892 85.7 11.2 89 15.6
2009-03-03 11:18:05 51°10.154 2°38.184 87.8 11.3 91 15.2
2009-03-03 11:19:06 51°10.163 2°38.484 84.3 11.1 86 15.2
2009-03-03 11:20:05 51°10.174 2°38.773 85.2 11.1 87 14.3
2009-03-03 11:21:06 51°10.173 2°39.073 89.8 11.3 92 13.9
2009-03-03 11:22:05 51°10.164 2°39.365 89.8 11.1 92 12.9
2009-03-03 11:23:06 51°10.152 2°39.665 92.5 11.2 96 11.8
2009-03-03 11:24:06 51°10.14 2°39.962 90.5 11.3 92 11
2009-03-03 11:25:05 51°10.13 2°40.255 92 11.3 93 10.3
2009-03-03 11:26:06 51°10.119 2°40.559 90.8 11.3 92 9.8
2009-03-03 11:27:06 51°10.113 2°40.857 90 11.3 91 9.2
2009-03-03 11:28:05 51°10.131 2°41.146 80.7 11.2 82 8.8
2009-03-03 11:29:06 51°10.165 2°41.441 77 11.2 77 8.5
2009-03-03 11:30:06 51°10.202 2°41.729 78.4 11 80 8.2
2009-03-03 11:31:05 51°10.227 2°41.994 82.4 9.2 84 8.1
2009-03-03 11:32:06 51°10.245 2°42.229 81.7 8.6 82 7.9
2009-03-03 11:33:06 51°10.264 2°42.417 77.4 5.1 76 7.9
2009-03-03 11:34:05 51°10.299 2°42.486 32.4 2.6 24 8
2009-03-03 11:35:06 51°10.325 2°42.486 3.6 1.4 341 8.1
2009-03-03 11:36:06 51°10.344 2°42.469 346.8 1.3 320 8.1
2009-03-03 11:37:05 51°10.356 2°42.445 327.6 1.1 303 8.2
2009-03-03 11:38:06 51°10.364 2°42.42 312 1 285 8.4
2009-03-03 11:39:06 51°10.366 2°42.397 299.8 0.8 276 8.4
2009-03-03 11:40:05 51°10.373 2°42.362 311.1 2.8 303 8.5
2009-03-03 11:41:06 51°10.432 2°42.33 9.2 4.1 358 8.9
2009-03-03 11:42:06 51°10.49 2°42.313 355 3 340 9.4
2009-03-03 11:43:06 51°10.525 2°42.278 339.9 2.3 321 9.8
2009-03-03 11:44:06 51°10.571 2°42.27 38.6 3.3 36 10.3
2009-03-03 11:45:05 51°10.586 2°42.386 77.5 6.8 77 10.1
2009-03-03 11:46:05 51°10.635 2°42.599 68.9 10.1 68 10
2009-03-03 11:47:05 51°10.705 2°42.862 66.5 11.1 68 10
2009-03-03 11:48:06 51°10.776 2°43.136 69.9 11.1 70 10.1
2009-03-03 11:49:06 51°10.845 2°43.407 64.9 11.1 64 10.2
2009-03-03 11:50:06 51°10.94 2°43.66 60.8 11.1 58 10.5
2009-03-03 11:51:06 51°11.037 2°43.91 60 11.1 59 10.9
2009-03-03 11:52:05 51°11.134 2°44.155 60.6 11.2 58 11.2
2009-03-03 11:53:06 51°11.235 2°44.409 58.7 11.1 56 11.5
2009-03-03 11:54:06 51°11.334 2°44.659 59.3 11.1 58 11.7
2009-03-03 11:55:05 51°11.437 2°44.898 58.6 11.1 56 12
2009-03-03 11:56:05 51°11.54 2°45.141 60.3 11.1 58 12.2
2009-03-03 11:57:05 51°11.628 2°45.395 69 10.9 67 12.3
2009-03-03 11:58:06 51°11.701 2°45.665 66.5 10.9 64 12.4
2009-03-03 11:59:06 51°11.777 2°45.928 66.1 11 64 12.4
2009-03-03 12:00:05 51°11.856 2°46.183 65.8 11 65 12.4
2009-03-03 12:01:05 51°11.933 2°46.446 66.5 10.9 63 12.4
2009-03-03 12:02:06 51°12.014 2°46.71 67.6 10.9 67 12.4
2009-03-03 12:03:06 51°12.079 2°46.98 72.4 10.9 71 12.4
2009-03-03 12:04:06 51°12.138 2°47.254 73.2 11 73 12.3
2009-03-03 12:05:05 51°12.193 2°47.525 74.1 11 73 12.2
2009-03-03 12:06:05 51°12.249 2°47.802 72.7 10.9 71 12.1
2009-03-03 12:07:06 51°12.306 2°48.083 74.2 10.9 74 11.9
2009-03-03 12:08:06 51°12.366 2°48.357 71.2 10.9 71 11.6
2009-03-03 12:09:06 51°12.429 2°48.63 71.6 11 70 11.4
2009-03-03 12:10:05 51°12.489 2°48.902 71.4 11.1 70 11.2
2009-03-03 12:11:05 51°12.545 2°49.182 73.6 11.2 72 10.9
2009-03-03 12:12:06 51°12.605 2°49.466 72.7 11.1 72 10.4
2009-03-03 12:13:06 51°12.665 2°49.743 70.7 11.1 68 10.2
2009-03-03 12:14:05 51°12.729 2°50.012 71 11.2 71 9.9
2009-03-03 12:15:06 51°12.803 2°50.285 64.7 11.1 63 9.7
2009-03-03 12:16:06 51°12.897 2°50.541 61 11.1 57 9.7
2009-03-03 12:17:06 51°12.999 2°50.784 58.4 11.1 56 9.9
2009-03-03 12:18:06 51°13.104 2°51.026 58 11.1 55 9.9
2009-03-03 12:19:05 51°13.208 2°51.262 57.8 10.5 58 9.8
2009-03-03 12:20:05 51°13.302 2°51.478 58.7 9.7 55 10
2009-03-03 12:21:06 51°13.391 2°51.621 24.7 4.8 12 10.3
2009-03-03 12:22:06 51°13.447 2°51.576 321.7 3.6 308 10.7
2009-03-03 12:23:06 51°13.468 2°51.516 310 2 294 10.8
2009-03-03 12:24:05 51°13.478 2°51.474 301.3 1.4 286 10.9
2009-03-03 12:25:05 51°13.482 2°51.441 290.7 1.1 279 10.9
2009-03-03 12:26:06 51°13.485 2°51.412 283.4 1 278 10.9
2009-03-03 12:27:05 51°13.487 2°51.387 279.8 0.9 284 11
2009-03-03 12:28:05 51°13.491 2°51.365 282.1 0.8 280 11
2009-03-03 12:29:05 51°13.492 2°51.32 259 3 257 11.1
2009-03-03 12:30:06 51°13.45 2°51.255 190 3.6 195 11.1
2009-03-03 12:31:05 51°13.407 2°51.292 104.7 3.4 101 11
2009-03-03 12:32:05 51°13.442 2°51.462 66.9 10.3 67 10.7
2009-03-03 12:33:06 51°13.532 2°51.718 60.3 11 60 10.6
2009-03-03 12:34:06 51°13.631 2°51.967 59.8 11.2 56 10.5
2009-03-03 12:35:05 51°13.734 2°52.207 57.7 11.2 58 10.5
2009-03-03 12:36:06 51°13.837 2°52.458 59.8 11.2 59 10.4
2009-03-03 12:37:06 51°13.937 2°52.709 59.4 11.2 57 10.3
2009-03-03 12:38:06 51°14.034 2°52.964 60.5 11.2 60 10.3
2009-03-03 12:39:05 51°14.13 2°53.215 61 11.2 57 10
2009-03-03 12:40:06 51°14.231 2°53.473 59.7 11.4 58 9.7
2009-03-03 12:41:06 51°14.333 2°53.727 57.4 11.3 56 9.5
2009-03-03 12:42:05 51°14.445 2°53.962 55.8 11.4 57 9.6
2009-03-03 12:43:05 51°14.572 2°54.186 47 11.5 43 10.7
2009-03-03 12:44:06 51°14.713 2°54.399 45.4 11.4 41 10.1
2009-03-03 12:45:06 51°14.84 2°54.563 42.9 6.7 39 9.7
2009-03-03 12:46:05 51°14.888 2°54.652 59.5 3.6 56 9.7
2009-03-03 12:47:05 51°14.931 2°54.763 61.2 6.3 60 9.1
2009-03-03 12:48:06 51°15.013 2°54.929 48.6 9 47 9
2009-03-03 12:49:06 51°15.127 2°55.123 50.4 11.1 49 8.8
2009-03-03 12:50:05 51°15.253 2°55.338 48.6 11.3 47 8
2009-03-03 12:51:06 51°15.382 2°55.564 49.4 11.3 48 7.6
2009-03-03 12:52:06 51°15.518 2°55.772 44.6 11.4 42 7.6
2009-03-03 12:53:06 51°15.657 2°55.975 45 11.3 43 7.8
2009-03-03 12:54:05 51°15.792 2°56.178 46.5 11.3 45 8.1
2009-03-03 12:55:06 51°15.922 2°56.401 50.6 11.3 50 8.4
2009-03-03 12:56:06 51°16.04 2°56.635 54.1 11.3 53 8.6
2009-03-03 12:57:05 51°16.152 2°56.873 54.1 11.4 52 8.8
2009-03-03 12:58:05 51°16.266 2°57.114 56.2 11.4 53 8.9
2009-03-03 12:59:06 51°16.381 2°57.359 55.2 11.4 54 9.2
2009-03-03 13:00:06 51°16.49 2°57.605 54.8 11.4 55 9.2
2009-03-03 13:01:05 51°16.596 2°57.852 59.2 11.5 56 9.2
2009-03-03 13:02:06 51°16.707 2°58.105 55.8 11.5 55 9.3
2009-03-03 13:03:06 51°16.818 2°58.353 55.7 11.5 51 9.3
2009-03-03 13:04:06 51°16.929 2°58.598 55.8 11.4 55 9.4
2009-03-03 13:05:05 51°17.038 2°58.838 56.2 11.4 53 9.4
2009-03-03 13:06:06 51°17.141 2°59.097 60.1 11.4 58 9.3
2009-03-03 13:07:06 51°17.241 2°59.354 59.3 11.4 58 9.3
2009-03-03 13:08:05 51°17.338 2°59.611 59.6 11.6 59 9.3
2009-03-03 13:09:05 51°17.439 2°59.871 58.8 11.5 60 9.3
2009-03-03 13:10:06 51°17.544 3°0.134 57.6 11.6 55 9.3
2009-03-03 13:11:06 51°17.654 3°0.386 57.1 11.5 57 9.1
2009-03-03 13:12:05 51°17.759 3°0.638 56.6 11.5 57 9
2009-03-03 13:13:06 51°17.872 3°0.888 54.9 11.4 55 8.9
2009-03-03 13:14:06 51°17.981 3°1.138 55.9 11.4 61 9.1
2009-03-03 13:15:06 51°18.09 3°1.384 55.7 11.5 53 9
2009-03-03 13:16:05 51°18.196 3°1.629 56.1 11.4 57 8.8
2009-03-03 13:17:06 51°18.303 3°1.883 57.4 11.4 57 8.7
2009-03-03 13:18:06 51°18.408 3°2.136 56 11.3 56 8.6
2009-03-03 13:19:05 51°18.519 3°2.375 55.2 11.4 53 8.1
2009-03-03 13:20:05 51°18.628 3°2.62 56.1 11.3 56 8.1
2009-03-03 13:21:06 51°18.74 3°2.868 55.4 11.3 55 7.9
2009-03-03 13:22:06 51°18.846 3°3.115 58.4 11.3 58 7.8
2009-03-03 13:23:05 51°18.951 3°3.359 55.9 11.3 55 7.8
2009-03-03 13:24:05 51°19.059 3°3.606 55.7 11.4 52 7.9
2009-03-03 13:25:06 51°19.179 3°3.845 51.3 11.5 51 7.8
2009-03-03 13:26:06 51°19.312 3°4.061 42.5 11.4 39 8
2009-03-03 13:27:05 51°19.466 3°4.23 33.9 11.5 28 7.9
2009-03-03 13:28:06 51°19.631 3°4.387 32.6 11.4 30 8
2009-03-03 13:29:06 51°19.794 3°4.544 34.9 11.4 31 7.8
2009-03-03 13:30:06 51°19.954 3°4.707 36 11.4 34 7.7
2009-03-03 13:31:05 51°20.11 3°4.873 37.1 11.5 34 7.7
2009-03-03 13:32:05 51°20.271 3°5.035 33.5 11.5 32 7.6
2009-03-03 13:33:05 51°20.433 3°5.199 35.2 11.5 33 7.6
2009-03-03 13:34:05 51°20.592 3°5.368 34.1 11.6 33 7.7
2009-03-03 13:35:06 51°20.755 3°5.537 36.2 11.6 35 8.1
2009-03-03 13:36:06 51°20.909 3°5.72 42.2 11.5 42 8.5
2009-03-03 13:37:05 51°21.013 3°5.97 61.1 11.6 63 8.9
2009-03-03 13:38:06 51°21.098 3°6.252 65.6 11.6 63 9.2
2009-03-03 13:39:06 51°21.172 3°6.539 70.2 11.7 70 9.3
2009-03-03 13:40:06 51°21.234 3°6.837 71.8 11.8 71 9.3
2009-03-03 13:41:05 51°21.302 3°7.124 69.6 11.8 67 9.5
2009-03-03 13:42:06 51°21.371 3°7.425 69.1 11.9 70 9.6
2009-03-03 13:43:06 51°21.447 3°7.716 68.1 12 68 10
2009-03-03 13:44:05 51°21.524 3°8.001 67.4 11.9 65 10.2
2009-03-03 13:45:05 51°21.606 3°8.292 66.5 12.2 65 10.4
2009-03-03 13:46:06 51°21.7 3°8.583 62.6 12.2 60 10.9
2009-03-03 13:47:06 51°21.796 3°8.868 62.3 12.3 64 11.5
2009-03-03 13:48:05 51°21.891 3°9.149 62.4 12.3 63 12.2
2009-03-03 13:49:06 51°21.993 3°9.442 61.8 12.5 64 12.9
2009-03-03 13:50:06 51°22.094 3°9.733 62.5 12.6 59 13.6
2009-03-03 13:51:06 51°22.198 3°10.023 60.3 12.6 60 14.3
2009-03-03 13:52:05 51°22.297 3°10.317 65.4 12.9 67 15.2
2009-03-03 13:53:06 51°22.368 3°10.642 74 12.8 76 19.8
2009-03-03 13:54:06 51°22.424 3°10.961 76.3 10.8 73 15.9
2009-03-03 13:55:06 51°22.467 3°11.183 71.2 7.3 69 16
2009-03-03 13:56:06 51°22.498 3°11.333 77.9 4.7 73 15.9
2009-03-03 13:57:05 51°22.529 3°11.421 41.5 2.9 48 15.8
2009-03-03 13:58:06 51°22.566 3°11.466 10.6 2.9 19 15.8
2009-03-03 13:59:06 51°22.598 3°11.482 334 1.5 19 15.6
2009-03-03 14:00:05 51°22.618 3°11.494 317.8 1.1 26 15.3
2009-03-03 14:01:06 51°22.632 3°11.508 306.1 1 36 15.3
2009-03-03 14:02:05 51°22.645 3°11.528 297.3 1.1 47 15.2
2009-03-03 14:03:06 51°22.656 3°11.551 289.7 1.1 55 15
2009-03-03 14:04:06 51°22.67 3°11.569 286.6 1 338 15
2009-03-03 14:05:05 51°22.665 3°11.455 256.2 8.4 253 15.1
2009-03-03 14:06:06 51°22.6 3°11.198 244.7 11 243 15.6
2009-03-03 14:07:06 51°22.517 3°10.937 244.2 11.1 244 16.1
2009-03-03 14:08:06 51°22.433 3°10.673 245 11.1 243 16.8
2009-03-03 14:09:06 51°22.35 3°10.407 244.3 11.1 244 20
2009-03-03 14:10:05 51°22.269 3°10.151 240.5 11 239 14.9
2009-03-03 14:11:06 51°22.158 3°9.912 234.2 11.1 232 14.4
2009-03-03 14:12:06 51°22.045 3°9.677 234.5 11.1 232 13.8
2009-03-03 14:13:05 51°21.932 3°9.449 234.9 11.1 234 13.1
2009-03-03 14:14:06 51°21.82 3°9.205 234.5 11.2 232 12.4
2009-03-03 14:15:06 51°21.708 3°8.966 236.4 11.2 235 11.6
2009-03-03 14:16:06 51°21.598 3°8.723 235.6 11.2 234 10.8
2009-03-03 14:17:06 51°21.487 3°8.481 235.7 11.3 234 10.3
2009-03-03 14:18:05 51°21.38 3°8.242 235.9 11.3 235 10
2009-03-03 14:19:06 51°21.28 3°7.983 243.2 11.3 242 9.4
2009-03-03 14:20:06 51°21.199 3°7.711 247.1 11.3 246 9.1
2009-03-03 14:21:05 51°21.123 3°7.44 246.3 11.3 245 8.9
2009-03-03 14:22:05 51°21.04 3°7.171 240.3 11.3 238 8.9
2009-03-03 14:23:06 51°20.919 3°6.937 228.1 11.3 227 8.7
2009-03-03 14:24:06 51°20.792 3°6.717 228.6 11.3 227 8.6
2009-03-03 14:25:06 51°20.666 3°6.495 228.7 11.3 227 8.5
2009-03-03 14:26:06 51°20.539 3°6.273 228.2 11.3 227 8.7
2009-03-03 14:27:06 51°20.414 3°6.051 229.4 11.2 227 8.9
2009-03-03 14:28:05 51°20.292 3°5.834 229.4 11.1 229 8.8
2009-03-03 14:29:06 51°20.167 3°5.61 229.1 11.1 228 8.9
2009-03-03 14:30:05 51°20.046 3°5.394 229.3 11 229 8.9
2009-03-03 14:31:05 51°19.925 3°5.175 229.1 11 228 9
2009-03-03 14:32:05 51°19.804 3°4.957 229.5 10.9 228 9
2009-03-03 14:33:05 51°19.684 3°4.74 229.4 10.9 228 9.1
2009-03-03 14:34:05 51°19.564 3°4.522 229.4 10.9 228 9.3
2009-03-03 14:35:05 51°19.443 3°4.305 229.5 10.9 228 9.2
2009-03-03 14:36:06 51°19.319 3°4.09 228.6 10.8 229 9.3
2009-03-03 14:37:06 51°19.2 3°3.875 229.5 10.7 229 9.3
2009-03-03 14:38:06 51°19.082 3°3.663 227.7 10.7 227 9.2
2009-03-03 14:39:06 51°18.963 3°3.454 230.9 10.6 231 9.3
2009-03-03 14:40:06 51°18.854 3°3.232 233 10.6 234 9.5
2009-03-03 14:41:05 51°18.749 3°3.012 233 10.6 233 9.7
2009-03-03 14:42:05 51°18.646 3°2.787 235.5 10.5 236 9.9
2009-03-03 14:43:05 51°18.545 3°2.562 232.5 10.4 233 10
2009-03-03 14:44:05 51°18.443 3°2.338 234.8 10.4 235 10.2
2009-03-03 14:45:05 51°18.341 3°2.116 232.2 10.4 233 10.4
2009-03-03 14:46:05 51°18.24 3°1.892 233.8 10.4 234 10.8
2009-03-03 14:47:06 51°18.136 3°1.665 233.4 10.4 233 10.9
2009-03-03 14:48:06 51°18.031 3°1.448 232.9 10.3 234 11.2
2009-03-03 14:49:06 51°17.93 3°1.226 234.2 10.3 234 11
2009-03-03 14:50:06 51°17.829 3°1.003 233.8 10.3 234 11.1
2009-03-03 14:51:06 51°17.726 3°0.786 234 10.3 234 11.1
2009-03-03 14:52:05 51°17.626 3°0.571 233.8 10.1 233 11.2
2009-03-03 14:53:06 51°17.524 3°0.352 233.3 10.1 233 11.2
2009-03-03 14:54:06 51°17.425 3°0.135 233.2 10.2 234 11.2
2009-03-03 14:55:06 51°17.324 2°59.917 233.3 10.2 234 11.2
2009-03-03 14:56:05 51°17.226 2°59.703 233.5 10.2 234 11.4
2009-03-03 14:57:07 51°17.121 2°59.482 230.6 10.1 230 11.5
2009-03-03 14:58:06 51°17.019 2°59.275 233.5 10.1 234 11.4
2009-03-03 14:59:06 51°16.92 2°59.062 233.3 10 233 11.3
2009-03-03 15:00:06 51°16.82 2°58.853 232.2 9.9 232 11.5
2009-03-03 15:01:07 51°16.721 2°58.638 233.7 9.9 234 11.4
2009-03-03 15:02:06 51°16.629 2°58.426 234.4 9.8 234 11.2
2009-03-03 15:03:06 51°16.533 2°58.213 233.9 9.9 234 11.2
2009-03-03 15:04:06 51°16.434 2°58.004 232.6 9.8 232 11
2009-03-03 15:05:05 51°16.333 2°57.802 231.8 9.9 232 10.9
2009-03-03 15:06:07 51°16.232 2°57.588 232.7 9.8 233 10.7
2009-03-03 15:07:06 51°16.136 2°57.386 232.7 9.7 232 10.5
2009-03-03 15:08:06 51°16.04 2°57.177 235.6 9.7 236 10.3
2009-03-03 15:09:06 51°15.948 2°56.964 234.9 9.7 235 10.2
2009-03-03 15:10:06 51°15.853 2°56.752 233.8 9.8 234 10.1
2009-03-03 15:11:07 51°15.753 2°56.54 231.6 9.9 231 10.1
2009-03-03 15:12:05 51°15.659 2°56.348 231 7.9 230 10.1
2009-03-03 15:13:06 51°15.596 2°56.214 233.8 4.9 235 10.2
2009-03-03 15:14:06 51°15.552 2°56.12 233 5.3 233 10.2
2009-03-03 15:15:06 51°15.486 2°55.977 234.5 7.7 235 10.3
2009-03-03 15:16:06 51°15.396 2°55.781 233.6 9.5 234 10.5
2009-03-03 15:17:07 51°15.31 2°55.589 235.4 8.1 235 10.7
2009-03-03 15:18:06 51°15.242 2°55.421 237.2 7.6 237 11.1
2009-03-03 15:19:06 51°15.17 2°55.243 234.3 9.2 234 11.2
2009-03-03 15:20:06 51°15.064 2°55.047 223.6 9.9 220 11.6
2009-03-03 15:21:06 51°14.928 2°54.896 216.9 10.1 215 11.9
2009-03-03 15:22:07 51°14.79 2°54.744 210.7 9.6 201 12.4
2009-03-03 15:23:05 51°14.624 2°54.768 170.5 11 161 12.5
2009-03-03 15:24:07 51°14.468 2°54.9 152 9.3 138 13.4
2009-03-03 15:25:06 51°14.385 2°55.067 136.9 7.2 125 13.3
2009-03-03 15:26:10 51°14.303 2°55.202 137 7 136 13.8
2009-03-03 15:27:10 51°14.209 2°55.332 140.7 7.8 141 -999
2009-03-03 15:28:10 51°14.111 2°55.43 156.9 6.2 156 4.7
2009-03-03 15:29:10 51°14.019 2°55.495 157 6.2 155 4.7
2009-03-03 15:30:10 51°13.922 2°55.567 158 6.5 156 7.6
2009-03-03 15:31:10 51°13.823 2°55.636 154 6.4 155 7.6
2009-03-03 15:32:10 51°13.741 2°55.731 130.9 5.6 131 7.1
2009-03-03 15:33:10 51°13.689 2°55.845 126 5 124 7.6
2009-03-03 15:34:10 51°13.662 2°55.939 102.4 2.8 100 6.6
2009-03-03 15:35:10 51°13.662 2°55.958 116.8 0.3 100 7.6